sensor_id;sensor_type;location;lat;lon;timestamp;temperature;humidity
37222;DHT22;23119;51.842;-2.230;2023-08-12T00:00:54;18.20;99.90
37222;DHT22;23119;51.842;-2.230;2023-08-12T00:03:19;18.20;99.90
37222;DHT22;23119;51.842;-2.230;2023-08-12T00:05:47;18.10;99.90
37222;DHT22;23119;51.842;-2.230;2023-08-12T00:08:13;18.10;99.90
37222;DHT22;23119;51.842;-2.230;2023-08-12T00:10:39;18.10;99.90
37222;DHT22;23119;51.842;-2.230;2023-08-12T00:13:04;18.10;99.90
37222;DHT22;23119;51.842;-2.230;2023-08-12T00:15:30;18.10;99.90
37222;DHT22;23119;51.842;-2.230;2023-08-12T00:17:56;18.00;99.90
37222;DHT22;23119;51.842;-2.230;2023-08-12T00:20:21;18.00;99.90
37222;DHT22;23119;51.842;-2.230;2023-08-12T00:22:47;18.00;99.90
37222;DHT22;23119;51.842;-2.230;2023-08-12T00:25:18;17.90;99.90
37222;DHT22;23119;51.842;-2.230;2023-08-12T00:27:44;17.90;99.90
37222;DHT22;23119;51.842;-2.230;2023-08-12T00:30:10;17.80;99.90
37222;DHT22;23119;51.842;-2.230;2023-08-12T00:32:35;17.70;99.90
37222;DHT22;23119;51.842;-2.230;2023-08-12T00:35:01;17.70;99.90
37222;DHT22;23119;51.842;-2.230;2023-08-12T00:37:28;17.70;99.90
37222;DHT22;23119;51.842;-2.230;2023-08-12T00:39:54;17.60;99.90
37222;DHT22;23119;51.842;-2.230;2023-08-12T00:42:19;17.50;99.90
37222;DHT22;23119;51.842;-2.230;2023-08-12T00:44:45;17.50;99.90
37222;DHT22;23119;51.842;-2.230;2023-08-12T00:47:11;17.50;99.90
37222;DHT22;23119;51.842;-2.230;2023-08-12T00:49:40;17.50;99.90
37222;DHT22;23119;51.842;-2.230;2023-08-12T00:52:20;17.50;99.90
37222;DHT22;23119;51.842;-2.230;2023-08-12T00:54:50;17.50;99.90
37222;DHT22;23119;51.842;-2.230;2023-08-12T00:57:16;17.50;99.90
37222;DHT22;23119;51.842;-2.230;2023-08-12T00:59:44;17.40;99.90
37222;DHT22;23119;51.842;-2.230;2023-08-12T01:02:12;17.40;99.90
37222;DHT22;23119;51.842;-2.230;2023-08-12T01:04:42;17.40;99.90
37222;DHT22;23119;51.842;-2.230;2023-08-12T01:07:09;17.30;99.90
37222;DHT22;23119;51.842;-2.230;2023-08-12T01:09:37;17.20;99.90
37222;DHT22;23119;51.842;-2.230;2023-08-12T01:12:24;17.20;99.90
37222;DHT22;23119;51.842;-2.230;2023-08-12T01:15:07;17.20;99.90
37222;DHT22;23119;51.842;-2.230;2023-08-12T01:17:35;17.20;99.90
37222;DHT22;23119;51.842;-2.230;2023-08-12T01:20:02;17.20;99.90
37222;DHT22;23119;51.842;-2.230;2023-08-12T01:22:36;17.20;99.90
37222;DHT22;23119;51.842;-2.230;2023-08-12T01:25:05;17.10;99.90
37222;DHT22;23119;51.842;-2.230;2023-08-12T01:27:35;17.20;99.90
37222;DHT22;23119;51.842;-2.230;2023-08-12T01:30:05;17.10;99.90
37222;DHT22;23119;51.842;-2.230;2023-08-12T01:32:57;17.20;99.90
37222;DHT22;23119;51.842;-2.230;2023-08-12T01:35:33;17.10;99.90
37222;DHT22;23119;51.842;-2.230;2023-08-12T01:38:05;17.20;99.90
37222;DHT22;23119;51.842;-2.230;2023-08-12T01:40:31;17.10;99.90
37222;DHT22;23119;51.842;-2.230;2023-08-12T01:42:59;17.10;99.90
37222;DHT22;23119;51.842;-2.230;2023-08-12T01:45:30;17.10;99.90
37222;DHT22;23119;51.842;-2.230;2023-08-12T01:47:57;17.20;99.90
37222;DHT22;23119;51.842;-2.230;2023-08-12T01:50:23;17.20;99.90
37222;DHT22;23119;51.842;-2.230;2023-08-12T01:52:51;17.20;99.90
37222;DHT22;23119;51.842;-2.230;2023-08-12T01:55:19;17.10;99.90
37222;DHT22;23119;51.842;-2.230;2023-08-12T01:57:45;17.10;99.90
37222;DHT22;23119;51.842;-2.230;2023-08-12T02:00:11;17.10;99.90
37222;DHT22;23119;51.842;-2.230;2023-08-12T02:02:37;17.10;99.90
37222;DHT22;23119;51.842;-2.230;2023-08-12T02:05:05;17.10;99.90
37222;DHT22;23119;51.842;-2.230;2023-08-12T02:07:33;17.10;99.90
37222;DHT22;23119;51.842;-2.230;2023-08-12T02:09:59;17.00;99.90
37222;DHT22;23119;51.842;-2.230;2023-08-12T02:12:25;16.40;99.90
37222;DHT22;23119;51.842;-2.230;2023-08-12T02:14:53;17.10;99.90
37222;DHT22;23119;51.842;-2.230;2023-08-12T02:17:21;17.00;99.90
37222;DHT22;23119;51.842;-2.230;2023-08-12T02:19:47;17.00;99.90
37222;DHT22;23119;51.842;-2.230;2023-08-12T02:22:12;17.00;99.90
37222;DHT22;23119;51.842;-2.230;2023-08-12T02:24:40;16.90;99.90
37222;DHT22;23119;51.842;-2.230;2023-08-12T02:27:06;16.90;99.90
37222;DHT22;23119;51.842;-2.230;2023-08-12T02:29:34;16.80;99.90
37222;DHT22;23119;51.842;-2.230;2023-08-12T02:32:00;16.90;99.90
37222;DHT22;23119;51.842;-2.230;2023-08-12T02:34:26;16.90;99.90
37222;DHT22;23119;51.842;-2.230;2023-08-12T02:36:51;16.80;99.90
37222;DHT22;23119;51.842;-2.230;2023-08-12T02:39:22;16.80;99.90
37222;DHT22;23119;51.842;-2.230;2023-08-12T02:41:47;16.80;99.90
37222;DHT22;23119;51.842;-2.230;2023-08-12T02:44:13;16.80;99.90
37222;DHT22;23119;51.842;-2.230;2023-08-12T02:46:39;16.80;99.90
37222;DHT22;23119;51.842;-2.230;2023-08-12T02:49:04;16.90;99.90
37222;DHT22;23119;51.842;-2.230;2023-08-12T02:51:32;16.80;99.90
37222;DHT22;23119;51.842;-2.230;2023-08-12T02:53:58;16.90;99.90
37222;DHT22;23119;51.842;-2.230;2023-08-12T02:56:24;16.80;99.90
37222;DHT22;23119;51.842;-2.230;2023-08-12T02:58:52;16.80;99.90
37222;DHT22;23119;51.842;-2.230;2023-08-12T03:01:18;16.80;99.90
37222;DHT22;23119;51.842;-2.230;2023-08-12T03:03:46;16.80;99.90
37222;DHT22;23119;51.842;-2.230;2023-08-12T03:06:12;16.80;99.90
37222;DHT22;23119;51.842;-2.230;2023-08-12T03:08:38;16.80;99.90
37222;DHT22;23119;51.842;-2.230;2023-08-12T03:11:03;16.70;99.90
37222;DHT22;23119;51.842;-2.230;2023-08-12T03:13:29;16.70;99.90
37222;DHT22;23119;51.842;-2.230;2023-08-12T03:15:56;16.70;99.90
37222;DHT22;23119;51.842;-2.230;2023-08-12T03:18:22;16.70;99.90
37222;DHT22;23119;51.842;-2.230;2023-08-12T03:20:48;16.70;99.90
37222;DHT22;23119;51.842;-2.230;2023-08-12T03:23:14;16.70;99.90
37222;DHT22;23119;51.842;-2.230;2023-08-12T03:25:43;16.60;99.90
37222;DHT22;23119;51.842;-2.230;2023-08-12T03:28:08;16.70;99.90
37222;DHT22;23119;51.842;-2.230;2023-08-12T03:30:36;16.60;99.90
37222;DHT22;23119;51.842;-2.230;2023-08-12T03:33:02;16.70;99.90
37222;DHT22;23119;51.842;-2.230;2023-08-12T03:35:28;16.70;99.90
37222;DHT22;23119;51.842;-2.230;2023-08-12T03:37:59;16.70;99.90
37222;DHT22;23119;51.842;-2.230;2023-08-12T03:40:25;16.70;99.90
37222;DHT22;23119;51.842;-2.230;2023-08-12T03:42:53;16.70;99.90
37222;DHT22;23119;51.842;-2.230;2023-08-12T03:45:21;16.80;99.90
37222;DHT22;23119;51.842;-2.230;2023-08-12T03:47:47;16.80;99.90
37222;DHT22;23119;51.842;-2.230;2023-08-12T03:50:13;16.90;99.90
37222;DHT22;23119;51.842;-2.230;2023-08-12T03:52:39;16.90;99.90
37222;DHT22;23119;51.842;-2.230;2023-08-12T03:55:10;16.90;99.90
37222;DHT22;23119;51.842;-2.230;2023-08-12T03:57:35;16.90;99.90
37222;DHT22;23119;51.842;-2.230;2023-08-12T04:00:01;16.90;99.90
37222;DHT22;23119;51.842;-2.230;2023-08-12T04:02:28;17.00;99.90
37222;DHT22;23119;51.842;-2.230;2023-08-12T04:04:53;16.90;99.90
37222;DHT22;23119;51.842;-2.230;2023-08-12T04:07:19;16.90;99.90
37222;DHT22;23119;51.842;-2.230;2023-08-12T04:09:45;16.90;99.90
37222;DHT22;23119;51.842;-2.230;2023-08-12T04:12:10;16.90;99.90
37222;DHT22;23119;51.842;-2.230;2023-08-12T04:14:38;16.90;99.90
37222;DHT22;23119;51.842;-2.230;2023-08-12T04:17:06;16.90;99.90
37222;DHT22;23119;51.842;-2.230;2023-08-12T04:19:34;16.90;99.90
37222;DHT22;23119;51.842;-2.230;2023-08-12T04:22:02;16.90;99.90
37222;DHT22;23119;51.842;-2.230;2023-08-12T04:24:28;16.90;99.90
37222;DHT22;23119;51.842;-2.230;2023-08-12T04:26:55;16.90;99.90
37222;DHT22;23119;51.842;-2.230;2023-08-12T04:29:21;16.90;99.90
37222;DHT22;23119;51.842;-2.230;2023-08-12T04:31:49;16.90;99.90
37222;DHT22;23119;51.842;-2.230;2023-08-12T04:34:15;16.90;99.90
37222;DHT22;23119;51.842;-2.230;2023-08-12T04:36:40;16.90;99.90
37222;DHT22;23119;51.842;-2.230;2023-08-12T04:39:06;16.90;99.90
37222;DHT22;23119;51.842;-2.230;2023-08-12T04:41:32;16.90;99.90
37222;DHT22;23119;51.842;-2.230;2023-08-12T04:43:58;17.00;99.90
37222;DHT22;23119;51.842;-2.230;2023-08-12T04:46:24;17.00;99.90
37222;DHT22;23119;51.842;-2.230;2023-08-12T04:48:50;17.00;99.90
37222;DHT22;23119;51.842;-2.230;2023-08-12T04:51:22;17.00;99.90
37222;DHT22;23119;51.842;-2.230;2023-08-12T04:53:48;17.00;99.90
37222;DHT22;23119;51.842;-2.230;2023-08-12T04:56:14;17.10;99.90
37222;DHT22;23119;51.842;-2.230;2023-08-12T04:58:42;17.10;99.90
37222;DHT22;23119;51.842;-2.230;2023-08-12T05:01:08;17.10;99.90
37222;DHT22;23119;51.842;-2.230;2023-08-12T05:03:33;17.20;99.90
37222;DHT22;23119;51.842;-2.230;2023-08-12T05:05:59;17.20;99.90
37222;DHT22;23119;51.842;-2.230;2023-08-12T05:08:25;17.30;99.90
37222;DHT22;23119;51.842;-2.230;2023-08-12T05:10:51;17.40;99.90
37222;DHT22;23119;51.842;-2.230;2023-08-12T05:13:17;17.50;99.90
37222;DHT22;23119;51.842;-2.230;2023-08-12T05:15:53;17.60;99.90
37222;DHT22;23119;51.842;-2.230;2023-08-12T05:18:22;17.60;99.90
37222;DHT22;23119;51.842;-2.230;2023-08-12T05:20:52;17.60;99.90
37222;DHT22;23119;51.842;-2.230;2023-08-12T05:23:20;17.60;99.90
37222;DHT22;23119;51.842;-2.230;2023-08-12T05:25:51;17.60;99.90
37222;DHT22;23119;51.842;-2.230;2023-08-12T05:28:24;17.60;99.90
37222;DHT22;23119;51.842;-2.230;2023-08-12T05:30:50;17.70;99.90
37222;DHT22;23119;51.842;-2.230;2023-08-12T05:33:16;17.80;99.90
37222;DHT22;23119;51.842;-2.230;2023-08-12T05:35:47;18.00;99.90
37222;DHT22;23119;51.842;-2.230;2023-08-12T05:38:13;18.20;99.90
37222;DHT22;23119;51.842;-2.230;2023-08-12T05:40:38;18.70;99.90
37222;DHT22;23119;51.842;-2.230;2023-08-12T05:43:04;19.20;99.90
37222;DHT22;23119;51.842;-2.230;2023-08-12T05:45:32;19.90;99.90
37222;DHT22;23119;51.842;-2.230;2023-08-12T05:47:58;20.90;99.90
37222;DHT22;23119;51.842;-2.230;2023-08-12T05:50:23;21.70;99.90
37222;DHT22;23119;51.842;-2.230;2023-08-12T05:52:49;21.70;99.90
37222;DHT22;23119;51.842;-2.230;2023-08-12T05:55:15;21.50;99.90
37222;DHT22;23119;51.842;-2.230;2023-08-12T05:57:43;21.00;99.90
37222;DHT22;23119;51.842;-2.230;2023-08-12T06:00:09;20.70;99.90
37222;DHT22;23119;51.842;-2.230;2023-08-12T06:02:35;20.40;99.90
37222;DHT22;23119;51.842;-2.230;2023-08-12T06:05:05;20.20;99.90
37222;DHT22;23119;51.842;-2.230;2023-08-12T06:07:31;20.10;99.90
37222;DHT22;23119;51.842;-2.230;2023-08-12T06:09:56;20.10;99.90
37222;DHT22;23119;51.842;-2.230;2023-08-12T06:12:22;20.30;99.90
37222;DHT22;23119;51.842;-2.230;2023-08-12T06:14:48;20.10;99.90
37222;DHT22;23119;51.842;-2.230;2023-08-12T06:17:13;19.90;99.90
37222;DHT22;23119;51.842;-2.230;2023-08-12T06:19:39;19.70;99.90
37222;DHT22;23119;51.842;-2.230;2023-08-12T06:22:08;19.60;99.90
37222;DHT22;23119;51.842;-2.230;2023-08-12T06:24:33;19.40;99.90
37222;DHT22;23119;51.842;-2.230;2023-08-12T06:26:59;19.40;99.90
37222;DHT22;23119;51.842;-2.230;2023-08-12T06:29:25;19.30;99.90
37222;DHT22;23119;51.842;-2.230;2023-08-12T06:31:54;19.20;99.90
37222;DHT22;23119;51.842;-2.230;2023-08-12T06:34:20;19.10;99.90
37222;DHT22;23119;51.842;-2.230;2023-08-12T06:36:48;19.00;99.90
37222;DHT22;23119;51.842;-2.230;2023-08-12T06:39:17;19.20;99.90
37222;DHT22;23119;51.842;-2.230;2023-08-12T06:41:42;19.50;99.90
37222;DHT22;23119;51.842;-2.230;2023-08-12T06:44:08;19.60;99.90
37222;DHT22;23119;51.842;-2.230;2023-08-12T06:46:34;19.60;99.90
37222;DHT22;23119;51.842;-2.230;2023-08-12T06:49:00;19.50;99.90
37222;DHT22;23119;51.842;-2.230;2023-08-12T06:51:26;19.50;99.90
37222;DHT22;23119;51.842;-2.230;2023-08-12T06:53:51;19.50;99.90
37222;DHT22;23119;51.842;-2.230;2023-08-12T06:56:19;19.40;99.90
37222;DHT22;23119;51.842;-2.230;2023-08-12T06:58:45;19.40;99.90
37222;DHT22;23119;51.842;-2.230;2023-08-12T07:01:11;19.40;99.90
37222;DHT22;23119;51.842;-2.230;2023-08-12T07:03:37;19.40;99.90
37222;DHT22;23119;51.842;-2.230;2023-08-12T07:06:02;19.30;99.90
37222;DHT22;23119;51.842;-2.230;2023-08-12T07:08:28;19.30;99.90
37222;DHT22;23119;51.842;-2.230;2023-08-12T07:10:54;19.30;99.90
37222;DHT22;23119;51.842;-2.230;2023-08-12T07:13:20;19.30;99.90
37222;DHT22;23119;51.842;-2.230;2023-08-12T07:15:47;19.30;99.90
37222;DHT22;23119;51.842;-2.230;2023-08-12T07:18:13;19.40;99.90
37222;DHT22;23119;51.842;-2.230;2023-08-12T07:20:39;19.50;99.90
37222;DHT22;23119;51.842;-2.230;2023-08-12T07:23:05;19.60;99.90
37222;DHT22;23119;51.842;-2.230;2023-08-12T07:25:33;19.60;99.90
37222;DHT22;23119;51.842;-2.230;2023-08-12T07:27:58;19.70;99.90
37222;DHT22;23119;51.842;-2.230;2023-08-12T07:30:24;19.80;99.90
37222;DHT22;23119;51.842;-2.230;2023-08-12T07:32:52;19.90;99.90
37222;DHT22;23119;51.842;-2.230;2023-08-12T07:35:18;20.00;99.90
37222;DHT22;23119;51.842;-2.230;2023-08-12T07:37:44;20.20;99.90
37222;DHT22;23119;51.842;-2.230;2023-08-12T07:40:10;20.60;99.90
37222;DHT22;23119;51.842;-2.230;2023-08-12T07:42:35;21.10;99.90
37222;DHT22;23119;51.842;-2.230;2023-08-12T07:45:04;21.40;99.90
37222;DHT22;23119;51.842;-2.230;2023-08-12T07:47:30;22.40;99.90
37222;DHT22;23119;51.842;-2.230;2023-08-12T07:49:56;25.00;99.90
37222;DHT22;23119;51.842;-2.230;2023-08-12T07:52:22;27.30;99.90
37222;DHT22;23119;51.842;-2.230;2023-08-12T07:54:49;28.90;98.00
37222;DHT22;23119;51.842;-2.230;2023-08-12T07:57:14;29.40;96.50
37222;DHT22;23119;51.842;-2.230;2023-08-12T07:59:42;30.20;94.80
37222;DHT22;23119;51.842;-2.230;2023-08-12T08:02:08;30.70;93.90
37222;DHT22;23119;51.842;-2.230;2023-08-12T08:04:37;30.50;93.30
37222;DHT22;23119;51.842;-2.230;2023-08-12T08:07:03;31.00;92.80
37222;DHT22;23119;51.842;-2.230;2023-08-12T08:09:31;30.30;92.90
37222;DHT22;23119;51.842;-2.230;2023-08-12T08:11:56;29.60;93.80
37222;DHT22;23119;51.842;-2.230;2023-08-12T08:14:25;28.70;94.10
37222;DHT22;23119;51.842;-2.230;2023-08-12T08:16:51;27.80;95.10
37222;DHT22;23119;51.842;-2.230;2023-08-12T08:19:19;27.00;95.90
37222;DHT22;23119;51.842;-2.230;2023-08-12T08:21:45;26.50;96.60
37222;DHT22;23119;51.842;-2.230;2023-08-12T08:24:11;26.00;97.10
37222;DHT22;23119;51.842;-2.230;2023-08-12T08:26:39;25.80;97.60
37222;DHT22;23119;51.842;-2.230;2023-08-12T08:29:06;26.00;97.40
37222;DHT22;23119;51.842;-2.230;2023-08-12T08:31:32;25.80;97.70
37222;DHT22;23119;51.842;-2.230;2023-08-12T08:34:00;25.60;98.00
37222;DHT22;23119;51.842;-2.230;2023-08-12T08:36:28;25.30;98.30
37222;DHT22;23119;51.842;-2.230;2023-08-12T08:38:57;24.90;98.70
37222;DHT22;23119;51.842;-2.230;2023-08-12T08:41:26;24.50;99.20
37222;DHT22;23119;51.842;-2.230;2023-08-12T08:43:55;24.20;99.70
37222;DHT22;23119;51.842;-2.230;2023-08-12T08:46:23;23.80;99.90
37222;DHT22;23119;51.842;-2.230;2023-08-12T08:48:51;23.50;99.90
37222;DHT22;23119;51.842;-2.230;2023-08-12T08:51:18;23.30;99.90
37222;DHT22;23119;51.842;-2.230;2023-08-12T08:53:47;23.20;99.90
37222;DHT22;23119;51.842;-2.230;2023-08-12T08:56:13;23.10;99.90
37222;DHT22;23119;51.842;-2.230;2023-08-12T08:58:41;23.00;99.90
37222;DHT22;23119;51.842;-2.230;2023-08-12T09:01:10;22.90;99.90
37222;DHT22;23119;51.842;-2.230;2023-08-12T09:03:42;22.70;99.90
37222;DHT22;23119;51.842;-2.230;2023-08-12T09:06:09;22.50;99.90
37222;DHT22;23119;51.842;-2.230;2023-08-12T09:08:36;22.40;99.90
37222;DHT22;23119;51.842;-2.230;2023-08-12T09:11:03;22.50;99.90
37222;DHT22;23119;51.842;-2.230;2023-08-12T09:13:29;22.60;99.90
37222;DHT22;23119;51.842;-2.230;2023-08-12T09:15:57;23.00;99.90
37222;DHT22;23119;51.842;-2.230;2023-08-12T09:18:23;23.50;99.90
37222;DHT22;23119;51.842;-2.230;2023-08-12T09:20:50;23.70;99.90
37222;DHT22;23119;51.842;-2.230;2023-08-12T09:23:16;23.70;99.90
37222;DHT22;23119;51.842;-2.230;2023-08-12T09:25:43;23.50;99.90
37222;DHT22;23119;51.842;-2.230;2023-08-12T09:28:10;23.20;99.90
37222;DHT22;23119;51.842;-2.230;2023-08-12T09:30:36;23.30;99.90
37222;DHT22;23119;51.842;-2.230;2023-08-12T09:33:04;23.30;99.90
37222;DHT22;23119;51.842;-2.230;2023-08-12T09:35:38;23.30;99.90
37222;DHT22;23119;51.842;-2.230;2023-08-12T09:38:06;23.30;99.90
37222;DHT22;23119;51.842;-2.230;2023-08-12T09:40:34;23.10;99.90
37222;DHT22;23119;51.842;-2.230;2023-08-12T09:43:01;23.10;99.90
37222;DHT22;23119;51.842;-2.230;2023-08-12T09:45:27;23.20;99.90
37222;DHT22;23119;51.842;-2.230;2023-08-12T09:47:56;23.50;99.90
37222;DHT22;23119;51.842;-2.230;2023-08-12T09:50:23;24.00;99.90
37222;DHT22;23119;51.842;-2.230;2023-08-12T09:52:53;24.50;99.90
37222;DHT22;23119;51.842;-2.230;2023-08-12T09:55:20;24.90;99.90
37222;DHT22;23119;51.842;-2.230;2023-08-12T09:57:49;25.10;99.90
37222;DHT22;23119;51.842;-2.230;2023-08-12T10:00:16;25.50;99.90
37222;DHT22;23119;51.842;-2.230;2023-08-12T10:02:46;25.90;99.90
37222;DHT22;23119;51.842;-2.230;2023-08-12T10:05:15;26.30;99.90
37222;DHT22;23119;51.842;-2.230;2023-08-12T10:07:44;26.60;99.90
37222;DHT22;23119;51.842;-2.230;2023-08-12T10:10:23;27.00;99.80
37222;DHT22;23119;51.842;-2.230;2023-08-12T10:12:54;27.20;98.90
37222;DHT22;23119;51.842;-2.230;2023-08-12T10:15:20;27.40;98.90
37222;DHT22;23119;51.842;-2.230;2023-08-12T10:17:47;27.50;98.70
37222;DHT22;23119;51.842;-2.230;2023-08-12T10:20:21;27.50;98.00
37222;DHT22;23119;51.842;-2.230;2023-08-12T10:22:55;27.20;97.60
37222;DHT22;23119;51.842;-2.230;2023-08-12T10:25:27;27.30;97.90
37222;DHT22;23119;51.842;-2.230;2023-08-12T10:27:58;27.30;97.90
37222;DHT22;23119;51.842;-2.230;2023-08-12T10:30:28;27.00;97.80
37222;DHT22;23119;51.842;-2.230;2023-08-12T10:32:58;26.70;98.10
37222;DHT22;23119;51.842;-2.230;2023-08-12T10:35:44;26.40;98.10
37222;DHT22;23119;51.842;-2.230;2023-08-12T10:38:12;26.00;98.20
37222;DHT22;23119;51.842;-2.230;2023-08-12T10:40:38;25.80;98.60
37222;DHT22;23119;51.842;-2.230;2023-08-12T10:43:04;25.90;98.90
37222;DHT22;23119;51.842;-2.230;2023-08-12T10:45:47;26.10;98.80
37222;DHT22;23119;51.842;-2.230;2023-08-12T10:48:23;26.30;97.40
37222;DHT22;23119;51.842;-2.230;2023-08-12T10:50:52;26.40;97.60
37222;DHT22;23119;51.842;-2.230;2023-08-12T10:53:28;26.20;97.20
37222;DHT22;23119;51.842;-2.230;2023-08-12T10:56:03;26.30;97.40
37222;DHT22;23119;51.842;-2.230;2023-08-12T10:58:39;26.20;97.50
37222;DHT22;23119;51.842;-2.230;2023-08-12T11:01:18;26.20;97.50
37222;DHT22;23119;51.842;-2.230;2023-08-12T11:03:45;26.40;97.40
37222;DHT22;23119;51.842;-2.230;2023-08-12T11:06:11;26.60;97.30
37222;DHT22;23119;51.842;-2.230;2023-08-12T11:08:52;26.80;97.00
37222;DHT22;23119;51.842;-2.230;2023-08-12T11:11:22;27.10;96.70
37222;DHT22;23119;51.842;-2.230;2023-08-12T11:13:57;27.00;97.00
37222;DHT22;23119;51.842;-2.230;2023-08-12T11:16:44;27.00;96.70
37222;DHT22;23119;51.842;-2.230;2023-08-12T11:19:12;26.70;96.50
37222;DHT22;23119;51.842;-2.230;2023-08-12T11:21:39;26.40;96.80
37222;DHT22;23119;51.842;-2.230;2023-08-12T11:24:05;26.10;97.50
37222;DHT22;23119;51.842;-2.230;2023-08-12T11:26:31;25.60;98.10
37222;DHT22;23119;51.842;-2.230;2023-08-12T11:28:57;25.10;98.70
37222;DHT22;23119;51.842;-2.230;2023-08-12T11:31:25;24.80;99.50
37222;DHT22;23119;51.842;-2.230;2023-08-12T11:33:55;24.50;99.90
37222;DHT22;23119;51.842;-2.230;2023-08-12T11:36:20;24.20;99.90
37222;DHT22;23119;51.842;-2.230;2023-08-12T11:38:47;24.10;99.90
37222;DHT22;23119;51.842;-2.230;2023-08-12T11:41:17;24.20;99.90
37222;DHT22;23119;51.842;-2.230;2023-08-12T11:43:43;24.30;99.90
37222;DHT22;23119;51.842;-2.230;2023-08-12T11:46:09;24.50;99.90
37222;DHT22;23119;51.842;-2.230;2023-08-12T11:48:37;24.60;99.90
37222;DHT22;23119;51.842;-2.230;2023-08-12T11:51:03;24.90;99.90
37222;DHT22;23119;51.842;-2.230;2023-08-12T11:53:32;25.10;99.90
37222;DHT22;23119;51.842;-2.230;2023-08-12T11:56:01;25.00;99.90
37222;DHT22;23119;51.842;-2.230;2023-08-12T11:58:36;25.20;99.90
37222;DHT22;23119;51.842;-2.230;2023-08-12T12:01:01;25.20;99.90
37222;DHT22;23119;51.842;-2.230;2023-08-12T12:03:28;25.10;99.90
37222;DHT22;23119;51.842;-2.230;2023-08-12T12:05:57;25.20;99.90
37222;DHT22;23119;51.842;-2.230;2023-08-12T12:08:22;25.40;99.90
37222;DHT22;23119;51.842;-2.230;2023-08-12T12:10:54;25.70;99.90
37222;DHT22;23119;51.842;-2.230;2023-08-12T12:13:24;26.10;99.90
37222;DHT22;23119;51.842;-2.230;2023-08-12T12:15:52;26.10;99.90
37222;DHT22;23119;51.842;-2.230;2023-08-12T12:18:18;26.10;99.90
37222;DHT22;23119;51.842;-2.230;2023-08-12T12:20:57;26.00;99.90
37222;DHT22;23119;51.842;-2.230;2023-08-12T12:23:27;25.80;99.90
37222;DHT22;23119;51.842;-2.230;2023-08-12T12:26:03;25.60;99.90
37222;DHT22;23119;51.842;-2.230;2023-08-12T12:28:41;25.60;99.90
37222;DHT22;23119;51.842;-2.230;2023-08-12T12:31:07;25.60;99.90
37222;DHT22;23119;51.842;-2.230;2023-08-12T12:33:37;25.70;99.90
37222;DHT22;23119;51.842;-2.230;2023-08-12T12:36:05;25.80;99.90
37222;DHT22;23119;51.842;-2.230;2023-08-12T12:38:31;25.70;99.90
37222;DHT22;23119;51.842;-2.230;2023-08-12T12:41:07;25.70;99.90
37222;DHT22;23119;51.842;-2.230;2023-08-12T12:43:33;25.60;99.90
37222;DHT22;23119;51.842;-2.230;2023-08-12T12:46:01;25.60;99.90
37222;DHT22;23119;51.842;-2.230;2023-08-12T12:48:26;25.40;99.90
37222;DHT22;23119;51.842;-2.230;2023-08-12T12:50:52;25.20;99.90
37222;DHT22;23119;51.842;-2.230;2023-08-12T12:53:18;24.90;99.90
37222;DHT22;23119;51.842;-2.230;2023-08-12T12:55:45;24.80;99.90
37222;DHT22;23119;51.842;-2.230;2023-08-12T12:58:10;24.50;99.90
37222;DHT22;23119;51.842;-2.230;2023-08-12T13:00:37;24.30;99.90
37222;DHT22;23119;51.842;-2.230;2023-08-12T13:03:02;24.10;99.90
37222;DHT22;23119;51.842;-2.230;2023-08-12T13:05:30;23.90;99.90
37222;DHT22;23119;51.842;-2.230;2023-08-12T13:07:56;23.90;99.90
37222;DHT22;23119;51.842;-2.230;2023-08-12T13:10:28;24.00;99.90
37222;DHT22;23119;51.842;-2.230;2023-08-12T13:12:56;24.20;99.90
37222;DHT22;23119;51.842;-2.230;2023-08-12T13:15:23;24.20;99.90
37222;DHT22;23119;51.842;-2.230;2023-08-12T13:17:50;24.20;99.90
37222;DHT22;23119;51.842;-2.230;2023-08-12T13:20:16;24.30;99.90
37222;DHT22;23119;51.842;-2.230;2023-08-12T13:22:44;24.30;99.90
37222;DHT22;23119;51.842;-2.230;2023-08-12T13:25:11;24.40;99.90
37222;DHT22;23119;51.842;-2.230;2023-08-12T13:27:37;24.40;99.90
37222;DHT22;23119;51.842;-2.230;2023-08-12T13:30:06;24.20;99.90
37222;DHT22;23119;51.842;-2.230;2023-08-12T13:32:37;24.10;99.90
37222;DHT22;23119;51.842;-2.230;2023-08-12T13:35:04;23.90;99.90
37222;DHT22;23119;51.842;-2.230;2023-08-12T13:37:36;23.70;99.90
37222;DHT22;23119;51.842;-2.230;2023-08-12T13:40:07;23.50;99.90
37222;DHT22;23119;51.842;-2.230;2023-08-12T13:42:39;23.40;99.90
37222;DHT22;23119;51.842;-2.230;2023-08-12T13:45:12;23.40;99.90
37222;DHT22;23119;51.842;-2.230;2023-08-12T13:47:38;23.50;99.90
37222;DHT22;23119;51.842;-2.230;2023-08-12T13:50:04;23.60;99.90
37222;DHT22;23119;51.842;-2.230;2023-08-12T13:52:38;23.80;99.90
37222;DHT22;23119;51.842;-2.230;2023-08-12T13:55:04;24.10;99.90
37222;DHT22;23119;51.842;-2.230;2023-08-12T13:57:32;24.40;99.90
37222;DHT22;23119;51.842;-2.230;2023-08-12T13:59:58;24.50;99.90
37222;DHT22;23119;51.842;-2.230;2023-08-12T14:02:24;24.40;99.90
37222;DHT22;23119;51.842;-2.230;2023-08-12T14:04:50;24.30;99.90
37222;DHT22;23119;51.842;-2.230;2023-08-12T14:07:16;24.20;99.90
37222;DHT22;23119;51.842;-2.230;2023-08-12T14:09:42;24.00;99.90
37222;DHT22;23119;51.842;-2.230;2023-08-12T14:12:08;24.00;99.90
37222;DHT22;23119;51.842;-2.230;2023-08-12T14:14:33;24.00;99.90
37222;DHT22;23119;51.842;-2.230;2023-08-12T14:16:59;24.00;99.90
37222;DHT22;23119;51.842;-2.230;2023-08-12T14:19:25;23.90;99.90
37222;DHT22;23119;51.842;-2.230;2023-08-12T14:21:51;23.90;99.90
37222;DHT22;23119;51.842;-2.230;2023-08-12T14:24:21;24.00;99.90
37222;DHT22;23119;51.842;-2.230;2023-08-12T14:26:47;24.20;99.90
37222;DHT22;23119;51.842;-2.230;2023-08-12T14:29:13;24.30;99.90
37222;DHT22;23119;51.842;-2.230;2023-08-12T14:31:41;24.50;99.90
37222;DHT22;23119;51.842;-2.230;2023-08-12T14:34:16;24.60;99.90
37222;DHT22;23119;51.842;-2.230;2023-08-12T14:36:42;24.70;99.90
37222;DHT22;23119;51.842;-2.230;2023-08-12T14:39:07;24.60;99.90
37222;DHT22;23119;51.842;-2.230;2023-08-12T14:41:33;24.70;99.90
37222;DHT22;23119;51.842;-2.230;2023-08-12T14:43:59;24.80;99.90
37222;DHT22;23119;51.842;-2.230;2023-08-12T14:46:24;24.90;99.90
37222;DHT22;23119;51.842;-2.230;2023-08-12T14:48:50;24.90;99.90
37222;DHT22;23119;51.842;-2.230;2023-08-12T14:51:19;24.80;99.90
37222;DHT22;23119;51.842;-2.230;2023-08-12T14:53:44;24.90;99.90
37222;DHT22;23119;51.842;-2.230;2023-08-12T14:56:12;25.10;99.90
37222;DHT22;23119;51.842;-2.230;2023-08-12T14:58:38;25.20;99.90
37222;DHT22;23119;51.842;-2.230;2023-08-12T15:01:04;25.10;99.90
37222;DHT22;23119;51.842;-2.230;2023-08-12T15:03:33;24.90;99.90
37222;DHT22;23119;51.842;-2.230;2023-08-12T15:06:00;24.90;99.90
37222;DHT22;23119;51.842;-2.230;2023-08-12T15:08:29;25.00;99.90
37222;DHT22;23119;51.842;-2.230;2023-08-12T15:10:57;25.00;99.90
37222;DHT22;23119;51.842;-2.230;2023-08-12T15:13:24;25.00;99.90
37222;DHT22;23119;51.842;-2.230;2023-08-12T15:15:50;25.00;99.90
37222;DHT22;23119;51.842;-2.230;2023-08-12T15:18:18;25.00;99.90